Cedar Point, IL

6:47 PM CST on December 21, 2014 (GMT -0600)
Lacon | Change Station
CLOSE
Current Station
Airport
Location: Lacon,
Elevation: 568 ft
Nearby Weather Stations

Elev 568 ft 41.02 °N, 89.39 °W | Updated 12 minutes ago

Overcast
Overcast
34 °F
Feels Like 26 °F
N
12
Wind Variable Wind from SE

Today
High -- | Low -- °F
--% Chance of Precip.
Yesterday
High -- | Low -- °F
Precip. -- in
7:18 AM 4:30 PM
Waning Crescent, 0% visible
Pressure 30.02 in
Visibility 7.0 miles
Clouds Overcast 3500 ft
Windchill 26 °F
Dew Point 30 °F
Humidity 84%
Rainfall 0.00 in
Snow Depth Not available.
UV 0 out of 12
Pollen .10 out of 12
Air Quality Not available.
Flu Activity Not available.
METAR KC75 220035Z AUTO 13010KT 7SM OVC035 01/M01 A3002 RMK AO2 T00121012

More Conditions Fewer Conditions

Pressure 30.02 in
Visibility 7.0 miles
Clouds Overcast 3500 ft
Windchill 26 °F
Dew Point 30 °F
Humidity 84%
Rainfall 0.00 in
Snow Depth Not available.
UV 0 out of 12
Pollen .10 out of 12
Air Quality Not available.
Flu Activity Not available.
METAR KC75 220035Z AUTO 13010KT 7SM OVC035 01/M01 A3002 RMK AO2 T00121012

More Conditions Fewer Conditions

10-Day Weather Forecast

Almanac

Astronomy

Dec. 21, 2014 Rise Set
Actual Time
Civil Twilight
Nautical Twilight
Astronomical Twilight
Moon
Length of Visible Light
Length of Day
Tomorrow will be .
, % of the Moon is Illuminated

Today's Extremes

State Highs State Lows

Community

WunderPhotos

Upload Photos

1,779,509 photos uploaded!

WunderBlogs® & News

Nearby

Air Quality

  Air Quality AQ Index Pollutant
Not available.

Snow Depth

Station Depth Elevation

Earthquake Activity

City Distance Mag. Time & Date
Minimum magnitude displayed is 2.5.

Coastal Water Temperatures

Place Temperature

Nearby Weather Stations